Nur fliegen ist schöner ....

Willkommen beim Flugservice Bautzen GmbH

Wir sind eine nach europäischen Richtlinien zugelassene Flugschule und lizenziertes Luftfahrtunternehmen. Bei uns können sie nicht nur Rundflüge über die Oberlausitz oder Sachsen buchen, sondern in unserer Flugschule selber das Fliegen erlernen. Erfahrene Fluglehrer stehen ihnen dabei zur Seite.

Wir bieten außerdem Businessflüghe sowie Transportleistungen auf dem Luftweg, ganz nach ihren Wünschen, an. Schauen sie sich in Ruhe bei uns um und wenn sie Fragen haben oder weitere Informationen benötigen, scheuen sie sich nicht Kontakt mit uns aufzunehmen.

Rundflüge können sie ganz leicht auch online in unserem Shop buchen.

Terminkalender

Letzter Monat Oktober 2017 Nächster Monat
Mo Di Mi Do Fr Sa So
week 39 1
week 40 2 3 4 5 6 7 8
week 41 9 10 11 12 13 14 15
week 42 16 17 18 19 20 21 22
week 43 23 24 25 26 27 28 29
week 44 30 31

Flugwetterinfo

[Quelle: ADDS]
METAR
EDDC 221650Z 21007KT 9999 SCT034 BKN045 11/06 Q1013 NOSIG =
TAF
EDDC 221100Z 2212/2312 25010G20KT 9999 BKN035 BECMG 2216/2218 22006KT =
SR / SS: 05:38 / 15:54 UTC (EDAB Flugplatz Bautzen 2017-10-22)

Webcam EDAB

Webcam EDAB
Flugservice Bautzen GmbH, Kornmarkt 34, 02625 Bautzen  Telefon: +49 (3591) 211105, Telefax: +49 (3591) 274512, E-Mail:  flugservice(at)fsbautzen.de